Airfield :
LOGIN :

Register | Disclaimer

   EN    FR    IT 

 










Legend :    VFR   Marginal VFR   IFR   Intensive IFR   Very Intensive IFR
Visi :
Ceiling :
>= 8 km
>= 3000ft
5 to 8 km
1000 to 3000 ft
1500m to 5 km
500 to 1000 ft
800 to 1500m
200 to 500 ft
< 800m
< 200 ft
Symbols :   Thunderstorms  Fog  Heavy snow  Heavy precipitations  Wind > 20 kt
SIGMETs :     Misc.  Thunderstorms  Icing  Turbulence  Mountain Waves  Volcanic Ashes







- Airport Elevation : 203 ft
- IATA code : XMJ
- Download approach charts


LFBM - Mont-De-Marsan

CURRENT METAR :
  • 250830Z AUTO 31005KT 270V340 9999 BKN012/// OVC019/// 14/12 Q1023 BECMG BKN025

EXPIRED METARs :
  • 250800Z AUTO 29003KT 250V350 9999 BKN008 BKN012 BKN019 13/12 Q1022 TEMPO 4000 DZRA BECMG BKN020
  • 250730Z AUTO 30004KT 9999 SCT008 OVC016 13/12 Q1022 TEMPO 4000 DZRA BKN003 BKN010 BKN020
  • 250700Z AUTO 31004KT 270V340 9000 -DZ BKN008 OVC013 13/12 Q1022 TEMPO 4000 DZRA BKN003 BKN010 BKN020
  • 250630Z AUTO 32004KT 270V360 9999 BKN007 OVC027 13/12 Q1021 TEMPO 4000 DZRA BKN003 BKN010 BKN020
  • 250600Z AUTO 30004KT 280V350 9999 BKN009 BKN014 OVC019 13/12 Q1021 TEMPO 4000 DZRA BKN003 BKN010 BKN020

TAF TAF LFBM
Valid from the 25 at 09:00 until the 26 at 09:00 UTC


250800Z 2509/2609 29010KT 9999 SCT010 BKN020
BECMG 2509/2511 BKN025
TEMPO 2515/2520 29010G20KT
BECMG 2522/2524 VRB02KT
TEMPO 2604/2606 4000 BR
PROB30
TEMPO 2604/2606 0800 BCFG
No reported NOTAMs for that airfield.



MET'MAP, your aeronautical weather chart ! - Copyright ORBIFLY December 2007 - Disclaimer

ORBIFLY MET'MAP TEAM :

Programming & Development : Alexandra Zaïnal
Concept & Development : Baudouin d'Aumeries
Co-Development & Prog : Marc-Olivier Méhu
Technical & hardware support : Manuel Goepfert

Contact : metmap@orbifly.com




SOURCES & CREDITS :

   NOAA